createdAt,value
2022-11-03T00:01:51.110Z,8.40
2022-11-03T00:04:20.040Z,9.27
2022-11-03T00:06:49.437Z,9.45
2022-11-03T00:09:17.800Z,8.75
2022-11-03T00:11:46.471Z,8.98
2022-11-03T00:14:17.120Z,9.52
2022-11-03T00:16:44.634Z,8.20
2022-11-03T00:19:12.012Z,9.25
2022-11-03T00:21:38.831Z,8.30
2022-11-03T00:24:06.572Z,8.43
2022-11-03T00:26:35.167Z,8.05
2022-11-03T00:29:10.602Z,7.40
2022-11-03T00:31:39.778Z,7.68
2022-11-03T00:34:07.461Z,7.43
2022-11-03T00:36:43.275Z,7.70
2022-11-03T00:39:10.978Z,7.40
2022-11-03T00:41:38.008Z,7.40
2022-11-03T00:44:04.913Z,7.55
2022-11-03T00:46:35.083Z,6.53
2022-11-03T00:49:03.857Z,7.10
2022-11-03T00:51:30.793Z,6.10
2022-11-03T00:54:00.552Z,7.45
2022-11-03T00:56:33.196Z,7.65
2022-11-03T00:59:01.389Z,8.63
2022-11-03T01:01:36.273Z,10.50
2022-11-03T01:04:26.665Z,13.60
2022-11-03T01:06:55.766Z,14.88
2022-11-03T01:09:22.650Z,14.85
2022-11-03T01:12:00.029Z,16.85
2022-11-03T01:14:42.086Z,21.85
2022-11-03T01:17:12.325Z,20.77
2022-11-03T01:19:39.195Z,21.45
2022-11-03T01:22:09.702Z,24.17
2022-11-03T01:24:40.033Z,20.40
2022-11-03T01:27:06.902Z,16.65
2022-11-03T01:29:33.604Z,19.33
2022-11-03T01:32:00.344Z,17.08
2022-11-03T01:34:27.297Z,14.70
2022-11-03T01:36:54.039Z,12.80
2022-11-03T01:39:20.843Z,12.75
2022-11-03T01:41:50.519Z,12.68
2022-11-03T01:44:17.636Z,11.95
2022-11-03T01:46:49.883Z,12.27
2022-11-03T01:49:38.131Z,15.50
2022-11-03T01:52:34.130Z,16.27
2022-11-03T01:55:07.572Z,15.13
2022-11-03T01:57:41.274Z,14.98
2022-11-03T02:00:09.501Z,15.18
2022-11-03T02:02:36.644Z,10.73
2022-11-03T02:05:05.986Z,11.93
2022-11-03T02:07:47.769Z,12.45
2022-11-03T02:10:14.653Z,11.88
2022-11-03T02:12:42.189Z,12.18
2022-11-03T02:15:12.476Z,10.75
2022-11-03T02:17:42.385Z,11.82
2022-11-03T02:20:17.531Z,11.80
2022-11-03T02:22:52.832Z,13.25
2022-11-03T02:25:35.080Z,14.93
2022-11-03T02:28:03.854Z,15.95
2022-11-03T02:30:39.874Z,14.70
2022-11-03T02:33:25.935Z,15.05
2022-11-03T02:36:15.759Z,16.05
2022-11-03T02:38:56.702Z,19.77
2022-11-03T02:41:24.888Z,15.93
2022-11-03T02:43:54.294Z,13.63
2022-11-03T02:46:21.698Z,12.77
2022-11-03T02:48:48.999Z,14.15
2022-11-03T02:51:15.866Z,17.50
2022-11-03T02:54:07.357Z,22.15
2022-11-03T02:56:45.689Z,21.58
2022-11-03T02:59:18.054Z,19.30
2022-11-03T03:01:54.504Z,18.98
2022-11-03T03:04:29.641Z,19.52
2022-11-03T03:07:10.190Z,18.92
2022-11-03T03:09:50.909Z,16.65
2022-11-03T03:12:19.620Z,22.88
2022-11-03T03:14:48.623Z,20.48
2022-11-03T03:17:50.799Z,19.77
2022-11-03T03:20:37.634Z,21.45
2022-11-03T03:23:17.640Z,23.38
2022-11-03T03:25:54.829Z,17.75
2022-11-03T03:28:31.793Z,15.98
2022-11-03T03:31:01.903Z,15.00
2022-11-03T03:33:30.654Z,15.50
2022-11-03T03:35:59.632Z,14.23
2022-11-03T03:38:33.455Z,13.32
2022-11-03T03:41:05.514Z,15.40
2022-11-03T03:43:35.642Z,13.77
2022-11-03T03:46:10.220Z,13.15
2022-11-03T03:48:37.437Z,11.05
2022-11-03T03:51:04.754Z,8.45
2022-11-03T03:53:31.653Z,8.70
2022-11-03T03:55:59.368Z,7.72
2022-11-03T03:58:26.113Z,8.23
2022-11-03T04:00:52.936Z,7.03
2022-11-03T04:03:25.259Z,7.60
2022-11-03T04:05:54.036Z,7.47
2022-11-03T04:08:20.825Z,7.55
2022-11-03T04:11:06.655Z,9.05
2022-11-03T04:13:53.536Z,6.75
2022-11-03T04:16:39.113Z,7.70
2022-11-03T04:19:24.530Z,7.43
2022-11-03T04:22:09.968Z,7.70
2022-11-03T04:24:37.140Z,7.68
2022-11-03T04:27:22.840Z,6.85
2022-11-03T04:29:50.050Z,7.65
2022-11-03T04:32:17.910Z,7.72
2022-11-03T04:34:48.272Z,9.75
2022-11-03T04:37:16.825Z,11.85
2022-11-03T04:42:21.011Z,7.53
2022-11-03T04:44:49.091Z,7.78
2022-11-03T04:47:17.980Z,8.45
2022-11-03T04:49:48.203Z,7.68
2022-11-03T04:52:21.376Z,7.55
2022-11-03T04:54:50.843Z,7.78
2022-11-03T04:57:18.440Z,7.22
2022-11-03T04:59:50.848Z,6.55
2022-11-03T05:02:21.009Z,6.60
2022-11-03T05:04:48.208Z,8.10
2022-11-03T05:07:30.996Z,7.28
2022-11-03T05:09:58.031Z,7.32
2022-11-03T05:12:25.588Z,6.95
2022-11-03T05:14:58.087Z,6.35
2022-11-03T05:17:27.929Z,7.15
2022-11-03T05:20:00.256Z,6.78
2022-11-03T05:22:33.986Z,7.00
2022-11-03T05:25:32.701Z,7.18
2022-11-03T05:27:59.465Z,8.00
2022-11-03T05:30:26.255Z,10.20
2022-11-03T05:32:53.362Z,10.48
2022-11-03T05:35:23.051Z,11.27
2022-11-03T05:37:51.046Z,12.15
2022-11-03T05:40:27.307Z,12.02
2022-11-03T05:43:01.082Z,11.60
2022-11-03T05:45:33.984Z,11.48
2022-11-03T05:48:03.624Z,10.45
2022-11-03T05:50:35.052Z,7.70
2022-11-03T05:53:27.872Z,8.20
2022-11-03T05:55:56.983Z,8.60
2022-11-03T05:58:26.337Z,10.95
2022-11-03T06:00:53.545Z,11.68
2022-11-03T06:03:25.356Z,11.50
2022-11-03T06:05:53.423Z,12.23
2022-11-03T06:08:35.260Z,10.38
2022-11-03T06:11:04.765Z,10.15
2022-11-03T06:13:37.726Z,10.48
2022-11-03T06:16:15.494Z,9.40
2022-11-03T06:18:42.785Z,10.15
2022-11-03T06:21:16.439Z,12.75
2022-11-03T06:23:43.720Z,14.50
2022-11-03T06:26:24.186Z,15.75
2022-11-03T06:28:51.732Z,17.60
2022-11-03T06:31:23.858Z,13.68
2022-11-03T06:33:52.534Z,14.45
2022-11-03T06:36:22.553Z,13.55
2022-11-03T06:38:54.354Z,14.35
2022-11-03T06:41:25.561Z,12.30
2022-11-03T06:43:52.881Z,13.95
2022-11-03T06:46:24.940Z,12.90
2022-11-03T06:49:00.473Z,15.43
2022-11-03T06:51:31.479Z,13.60
2022-11-03T06:54:00.294Z,11.93
2022-11-03T06:56:31.688Z,12.20
2022-11-03T06:58:58.876Z,15.13
2022-11-03T07:01:36.011Z,13.95
2022-11-03T07:04:12.488Z,13.38
2022-11-03T07:06:39.218Z,11.88
2022-11-03T07:09:12.098Z,13.80
2022-11-03T07:11:46.273Z,11.98
2022-11-03T07:14:17.837Z,11.13
2022-11-03T07:16:50.746Z,11.93
2022-11-03T07:19:25.089Z,12.23
2022-11-03T07:21:53.586Z,12.75
2022-11-03T07:24:41.061Z,12.57
2022-11-03T07:27:17.081Z,11.73
2022-11-03T07:29:44.777Z,12.75
2022-11-03T07:32:22.708Z,13.73
2022-11-03T07:34:59.489Z,12.15
2022-11-03T07:37:26.587Z,12.05
2022-11-03T07:39:54.119Z,11.02
2022-11-03T07:42:24.433Z,11.23
2022-11-03T07:44:52.786Z,10.88
2022-11-03T07:47:21.936Z,10.73
2022-11-03T07:49:48.958Z,9.60
2022-11-03T07:52:19.968Z,9.15
2022-11-03T07:54:47.233Z,9.30
2022-11-03T07:57:21.448Z,8.52
2022-11-03T07:59:51.979Z,8.80
2022-11-03T08:02:56.295Z,8.98
2022-11-03T08:05:23.039Z,9.85
2022-11-03T08:07:49.787Z,8.73
2022-11-03T08:10:16.676Z,9.10
2022-11-03T08:12:43.814Z,8.35
2022-11-03T08:15:11.582Z,7.63
2022-11-03T08:17:38.335Z,8.85
2022-11-03T08:20:05.413Z,8.70
2022-11-03T08:22:32.129Z,9.25
2022-11-03T08:24:59.297Z,9.18
2022-11-03T08:27:27.637Z,8.82
2022-11-03T08:29:54.457Z,8.90
2022-11-03T08:32:21.281Z,9.27
2022-11-03T08:34:48.015Z,8.77
2022-11-03T08:37:14.734Z,9.23
2022-11-03T08:39:41.633Z,9.73
2022-11-03T08:42:08.793Z,9.77
2022-11-03T08:44:35.530Z,9.65
2022-11-03T08:47:02.390Z,9.68
2022-11-03T08:49:29.572Z,10.13
2022-11-03T08:51:56.743Z,8.80
2022-11-03T08:54:23.525Z,7.65
2022-11-03T08:56:50.336Z,9.98
2022-11-03T08:59:18.222Z,8.32
2022-11-03T09:01:45.215Z,9.02
2022-11-03T09:04:12.620Z,8.60
2022-11-03T09:06:41.189Z,9.18
2022-11-03T09:11:54.785Z,8.38
2022-11-03T09:14:21.730Z,10.88
2022-11-03T09:16:48.484Z,9.25
2022-11-03T09:19:15.238Z,9.23
2022-11-03T09:21:42.404Z,7.80
2022-11-03T09:24:09.282Z,8.82
2022-11-03T09:26:36.455Z,8.27
2022-11-03T09:29:03.221Z,8.30
2022-11-03T09:31:30.091Z,7.25
2022-11-03T09:33:56.951Z,7.78
2022-11-03T09:36:24.111Z,7.38
2022-11-03T09:38:51.283Z,7.70
2022-11-03T09:41:26.311Z,7.90
2022-11-03T09:43:56.780Z,8.02
2022-11-03T09:46:24.463Z,8.48
2022-11-03T09:48:51.998Z,8.60
2022-11-03T09:51:21.415Z,8.25
2022-11-03T09:53:48.844Z,10.25
2022-11-03T09:56:22.236Z,9.25
2022-11-03T09:58:54.045Z,8.32
2022-11-03T10:01:22.644Z,9.57
2022-11-03T10:03:49.677Z,8.93
2022-11-03T10:06:17.608Z,9.45
2022-11-03T10:08:47.508Z,9.18
2022-11-03T10:11:15.684Z,8.45
2022-11-03T10:13:47.606Z,8.23
2022-11-03T10:16:20.424Z,10.25
2022-11-03T10:18:47.693Z,10.15
2022-11-03T10:21:28.455Z,11.40
2022-11-03T10:23:55.266Z,11.43
2022-11-03T10:26:22.531Z,11.13
2022-11-03T10:29:08.966Z,9.55
2022-11-03T10:31:40.777Z,11.48
2022-11-03T10:34:27.143Z,10.00
2022-11-03T10:37:13.014Z,10.52
2022-11-03T10:39:40.278Z,13.18
2022-11-03T10:42:35.946Z,11.13
2022-11-03T10:45:20.326Z,10.20
2022-11-03T10:48:10.304Z,9.95
2022-11-03T10:50:40.142Z,10.32
2022-11-03T10:53:19.203Z,11.73
2022-11-03T10:55:46.234Z,9.63
2022-11-03T10:58:13.467Z,8.52
2022-11-03T11:00:43.328Z,9.63
2022-11-03T11:03:16.373Z,9.55
2022-11-03T11:05:48.301Z,9.80
2022-11-03T11:08:21.256Z,9.48
2022-11-03T11:10:48.173Z,10.20
2022-11-03T11:13:18.714Z,8.60
2022-11-03T11:16:07.122Z,8.20
2022-11-03T11:18:33.956Z,6.57
2022-11-03T11:21:20.213Z,8.35
2022-11-03T11:23:48.467Z,8.38
2022-11-03T11:26:15.183Z,6.53
2022-11-03T11:28:44.242Z,7.53
2022-11-03T11:31:33.009Z,8.95
2022-11-03T11:34:21.418Z,7.57
2022-11-03T11:37:10.857Z,7.30
2022-11-03T11:39:44.164Z,7.32
2022-11-03T11:42:17.419Z,6.60
2022-11-03T11:44:45.909Z,6.28
2022-11-03T11:47:27.905Z,7.15
2022-11-03T11:50:02.707Z,6.95
2022-11-03T11:52:30.369Z,6.30
2022-11-03T11:54:57.164Z,6.68
2022-11-03T11:57:25.116Z,6.55
2022-11-03T11:59:52.171Z,6.85
2022-11-03T12:02:23.709Z,7.72
2022-11-03T12:05:03.739Z,7.80
2022-11-03T12:07:35.080Z,6.68
2022-11-03T12:10:19.265Z,5.80
2022-11-03T12:12:46.586Z,7.80
2022-11-03T12:15:48.369Z,6.80
2022-11-03T12:18:38.894Z,8.02
2022-11-03T12:21:30.804Z,6.80
2022-11-03T12:23:57.543Z,6.43
2022-11-03T12:26:32.821Z,6.18
2022-11-03T12:28:59.645Z,7.80
2022-11-03T12:31:26.388Z,5.78
2022-11-03T12:33:53.133Z,7.93
2022-11-03T12:36:20.306Z,5.70
2022-11-03T12:38:47.056Z,7.65
2022-11-03T12:41:24.424Z,6.20
2022-11-03T12:43:53.104Z,5.18
2022-11-03T12:46:21.065Z,7.07
2022-11-03T12:48:49.125Z,7.05
2022-11-03T12:51:17.153Z,8.18
2022-11-03T12:53:45.683Z,5.65
2022-11-03T12:56:13.661Z,8.90
2022-11-03T12:58:41.023Z,6.70
2022-11-03T13:01:08.614Z,6.53
2022-11-03T13:03:36.301Z,7.80
2022-11-03T13:06:05.527Z,7.60
2022-11-03T13:08:32.406Z,6.38
2022-11-03T13:10:59.863Z,6.57
2022-11-03T13:13:27.145Z,6.35
2022-11-03T13:15:54.346Z,7.10
2022-11-03T13:18:22.644Z,6.30
2022-11-03T13:20:49.363Z,8.27
2022-11-03T13:23:18.799Z,7.38
2022-11-03T13:25:48.889Z,7.07
2022-11-03T13:28:16.060Z,6.57
2022-11-03T13:30:42.793Z,6.10
2022-11-03T13:33:10.451Z,7.40
2022-11-03T13:35:37.956Z,8.57
2022-11-03T13:38:04.722Z,6.72
2022-11-03T13:43:18.204Z,9.48
2022-11-03T13:45:45.321Z,10.25
2022-11-03T13:51:00.260Z,10.52
2022-11-03T13:56:20.914Z,9.18
2022-11-03T14:01:36.840Z,9.23
2022-11-03T14:06:51.190Z,9.77
2022-11-03T14:09:17.981Z,9.90
2022-11-03T14:12:03.541Z,8.77
2022-11-03T14:14:30.297Z,9.18
2022-11-03T14:16:57.552Z,8.13
2022-11-03T14:19:28.789Z,13.57
2022-11-03T14:22:01.003Z,16.88
2022-11-03T14:24:28.108Z,15.93
2022-11-03T14:26:54.902Z,12.90
2022-11-03T14:29:21.802Z,9.68
2022-11-03T14:31:49.068Z,13.40
2022-11-03T14:34:15.899Z,13.18
2022-11-03T14:36:42.731Z,13.60
2022-11-03T14:39:09.681Z,15.05
2022-11-03T14:41:54.888Z,14.10
2022-11-03T14:44:21.632Z,13.95
2022-11-03T14:46:48.399Z,13.77
2022-11-03T14:49:15.131Z,14.27
2022-11-03T14:51:41.977Z,15.65
2022-11-03T14:54:08.794Z,20.92
2022-11-03T14:56:35.532Z,18.73
2022-11-03T14:59:02.307Z,17.88
2022-11-03T15:01:29.237Z,17.55
2022-11-03T15:03:56.006Z,15.52
2022-11-03T15:06:22.818Z,14.38
2022-11-03T15:08:55.078Z,13.73
2022-11-03T15:11:23.054Z,14.10
2022-11-03T15:13:52.259Z,16.73
2022-11-03T15:16:19.436Z,14.15
2022-11-03T15:18:46.796Z,12.48
2022-11-03T15:21:13.863Z,13.65
2022-11-03T15:26:27.401Z,15.60
2022-11-03T15:28:54.193Z,16.48
2022-11-03T15:31:21.002Z,19.30
2022-11-03T15:33:48.150Z,20.05
2022-11-03T15:36:15.001Z,27.80
2022-11-03T15:38:41.829Z,21.00
2022-11-03T15:41:17.484Z,22.38
2022-11-03T15:43:46.440Z,10.32
2022-11-03T15:46:14.199Z,20.63
2022-11-03T15:48:42.189Z,16.35
2022-11-03T15:51:09.490Z,19.05
2022-11-03T15:53:36.418Z,18.40
2022-11-03T15:56:03.325Z,19.27
2022-11-03T15:58:33.874Z,19.95
2022-11-03T16:01:02.429Z,18.75
2022-11-03T16:03:30.011Z,18.58
2022-11-03T16:05:56.848Z,17.20
2022-11-03T16:08:23.693Z,24.20
2022-11-03T16:10:54.796Z,28.05
2022-11-03T16:13:25.076Z,27.02
2022-11-03T16:15:53.192Z,28.50
2022-11-03T16:18:20.429Z,33.65
2022-11-03T16:20:47.151Z,38.15
2022-11-03T16:23:13.979Z,51.80
2022-11-03T16:25:41.147Z,49.33
2022-11-03T16:28:08.609Z,47.45
2022-11-03T16:30:35.787Z,49.10
2022-11-03T16:33:02.557Z,58.17
2022-11-03T16:35:29.805Z,45.40
2022-11-03T16:37:57.105Z,52.67
2022-11-03T16:40:24.281Z,29.85
2022-11-03T16:42:51.488Z,33.35
2022-11-03T16:45:23.458Z,29.52
2022-11-03T16:47:50.958Z,36.08
2022-11-03T16:50:18.889Z,28.70
2022-11-03T16:52:47.443Z,27.85
2022-11-03T16:55:18.789Z,25.42
2022-11-03T16:57:46.131Z,27.25
2022-11-03T17:00:16.566Z,27.13
2022-11-03T17:02:44.333Z,32.05
2022-11-03T17:05:12.555Z,30.88
2022-11-03T17:07:39.345Z,31.27
2022-11-03T17:10:07.730Z,27.95
2022-11-03T17:12:34.489Z,30.00
2022-11-03T17:15:01.283Z,28.52
2022-11-03T17:17:28.083Z,28.88
2022-11-03T17:19:54.901Z,31.25
2022-11-03T17:22:22.344Z,34.85
2022-11-03T17:24:49.459Z,28.20
2022-11-03T17:27:30.070Z,34.35
2022-11-03T17:30:04.040Z,33.13
2022-11-03T17:32:35.930Z,29.05
2022-11-03T17:35:03.775Z,40.85
2022-11-03T17:37:30.522Z,38.58
2022-11-03T17:39:57.415Z,37.10
2022-11-03T17:42:26.228Z,33.08
2022-11-03T17:44:59.400Z,35.35
2022-11-03T17:47:26.537Z,31.23
2022-11-03T17:49:53.277Z,36.85
2022-11-03T17:52:28.303Z,41.10
2022-11-03T17:54:57.540Z,42.25
2022-11-03T17:57:25.985Z,32.88
2022-11-03T17:59:55.383Z,30.48
2022-11-03T18:02:27.965Z,30.67
2022-11-03T18:05:44.472Z,36.78
2022-11-03T18:08:12.330Z,31.30
2022-11-03T18:10:42.662Z,33.67
2022-11-03T18:13:31.581Z,33.25
2022-11-03T18:16:11.401Z,33.58
2022-11-03T18:18:41.930Z,36.72
2022-11-03T18:21:19.850Z,35.22
2022-11-03T18:23:47.420Z,33.53
2022-11-03T18:26:20.247Z,33.00
2022-11-03T18:28:49.186Z,30.98
2022-11-03T18:31:33.886Z,32.80
2022-11-03T18:34:06.760Z,34.90
2022-11-03T18:36:34.322Z,35.42
2022-11-03T18:39:02.432Z,30.55
2022-11-03T18:41:36.114Z,32.05
2022-11-03T18:44:10.908Z,34.17
2022-11-03T18:46:38.233Z,34.92
2022-11-03T18:49:04.992Z,31.52
2022-11-03T18:51:32.333Z,33.42
2022-11-03T18:53:59.929Z,31.23
2022-11-03T18:56:27.795Z,29.25
2022-11-03T18:58:56.056Z,29.45
2022-11-03T19:01:26.067Z,51.80
2022-11-03T19:03:53.733Z,58.38
2022-11-03T19:06:21.145Z,62.60
2022-11-03T19:08:48.355Z,61.63
2022-11-03T19:11:15.362Z,69.32
2022-11-03T19:13:47.582Z,64.80
2022-11-03T19:16:20.430Z,60.85
2022-11-03T19:18:48.028Z,47.25
2022-11-03T19:21:20.973Z,43.80
2022-11-03T19:23:49.030Z,37.35
2022-11-03T19:26:36.060Z,34.60
2022-11-03T19:29:09.186Z,33.88
2022-11-03T19:31:39.149Z,37.78
2022-11-03T19:34:08.639Z,35.05
2022-11-03T19:36:36.133Z,38.95
2022-11-03T19:39:03.029Z,41.38
2022-11-03T19:41:48.390Z,38.58
2022-11-03T19:44:15.091Z,58.13
2022-11-03T19:46:42.199Z,54.95
2022-11-03T19:49:14.050Z,53.85
2022-11-03T19:51:41.082Z,48.45
2022-11-03T19:54:15.455Z,39.38
2022-11-03T19:56:42.222Z,38.42
2022-11-03T19:59:12.322Z,47.00
2022-11-03T20:01:39.252Z,50.08
2022-11-03T20:04:06.633Z,58.20
2022-11-03T20:06:35.772Z,50.25
2022-11-03T20:09:08.520Z,50.60
2022-11-03T20:11:36.674Z,54.75
2022-11-03T20:14:04.080Z,70.50
2022-11-03T20:16:31.267Z,62.78
2022-11-03T20:18:58.387Z,59.13
2022-11-03T20:21:27.829Z,46.20
2022-11-03T20:23:59.982Z,39.83
2022-11-03T20:26:28.054Z,29.20
2022-11-03T20:28:57.902Z,28.02
2022-11-03T20:31:25.246Z,28.23
2022-11-03T20:33:51.973Z,27.08
2022-11-03T20:36:20.405Z,24.02
2022-11-03T20:38:59.256Z,23.38
2022-11-03T20:41:30.567Z,26.38
2022-11-03T20:43:57.697Z,22.70
2022-11-03T20:46:32.768Z,22.05
2022-11-03T20:48:59.953Z,22.38
2022-11-03T20:51:31.376Z,24.55
2022-11-03T20:53:59.473Z,25.85
2022-11-03T20:56:28.501Z,29.17
2022-11-03T20:58:56.104Z,27.15
2022-11-03T21:01:30.703Z,21.40
2022-11-03T21:04:00.313Z,19.88
2022-11-03T21:06:29.830Z,20.15
2022-11-03T21:08:57.109Z,18.80
2022-11-03T21:11:30.000Z,18.70
2022-11-03T21:14:02.329Z,17.80
2022-11-03T21:16:48.979Z,20.05
2022-11-03T21:19:46.218Z,17.80
2022-11-03T21:22:56.909Z,17.25
2022-11-03T21:25:24.831Z,17.20
2022-11-03T21:28:05.073Z,18.20
2022-11-03T21:30:32.028Z,19.35
2022-11-03T21:32:58.741Z,17.55
2022-11-03T21:35:26.021Z,18.23
2022-11-03T21:37:52.882Z,17.38
2022-11-03T21:40:19.652Z,18.48
2022-11-03T21:43:05.510Z,16.48
2022-11-03T21:45:32.867Z,15.55
2022-11-03T21:48:18.877Z,16.25
2022-11-03T21:50:46.219Z,14.38
2022-11-03T21:53:13.179Z,19.17
2022-11-03T21:55:40.396Z,15.65
2022-11-03T21:58:07.568Z,16.73
2022-11-03T22:00:35.036Z,15.80
2022-11-03T22:03:02.196Z,17.38
2022-11-03T22:05:29.453Z,18.10
2022-11-03T22:07:56.293Z,16.95
2022-11-03T22:10:23.118Z,27.55
2022-11-03T22:12:49.972Z,31.55
2022-11-03T22:15:35.173Z,27.70
2022-11-03T22:18:03.151Z,32.30
2022-11-03T22:20:48.543Z,27.15
2022-11-03T22:23:34.597Z,38.95
2022-11-03T22:26:19.913Z,33.03
2022-11-03T22:29:07.159Z,31.50
2022-11-03T22:31:42.696Z,28.05
2022-11-03T22:34:28.518Z,29.60
2022-11-03T22:36:55.370Z,27.50
2022-11-03T22:39:40.454Z,34.08
2022-11-03T22:42:25.901Z,27.88
2022-11-03T22:45:11.668Z,26.83
2022-11-03T22:47:38.522Z,25.77
2022-11-03T22:50:05.538Z,25.55
2022-11-03T22:52:32.265Z,26.83
2022-11-03T22:54:59.023Z,27.75
2022-11-03T22:57:25.784Z,25.90
2022-11-03T22:59:52.570Z,27.65
2022-11-03T23:02:19.446Z,27.55
2022-11-03T23:04:46.867Z,21.60
2022-11-03T23:07:13.662Z,23.75
2022-11-03T23:09:40.982Z,21.60
2022-11-03T23:12:07.832Z,24.10
2022-11-03T23:14:52.972Z,20.95
2022-11-03T23:17:19.746Z,23.30
2022-11-03T23:20:04.956Z,21.73
2022-11-03T23:22:31.770Z,20.83
2022-11-03T23:25:01.625Z,21.13
2022-11-03T23:27:29.088Z,22.30
2022-11-03T23:29:55.906Z,20.08
2022-11-03T23:32:23.062Z,20.52
2022-11-03T23:34:53.116Z,23.52
2022-11-03T23:37:20.312Z,19.88
2022-11-03T23:39:47.048Z,18.77
2022-11-03T23:42:13.760Z,21.13
2022-11-03T23:44:59.028Z,20.50
2022-11-03T23:47:44.347Z,19.58
2022-11-03T23:50:11.434Z,23.02
2022-11-03T23:52:38.224Z,23.58
2022-11-03T23:55:05.837Z,22.55
2022-11-03T23:57:51.593Z,23.90
